createdAt,value
2018-05-07T00:00:55.069Z,943.03
2018-05-07T00:02:03.127Z,943.03
2018-05-07T00:03:11.218Z,943.01
2018-05-07T00:04:19.354Z,942.96
2018-05-07T00:05:27.328Z,942.94
2018-05-07T00:06:35.411Z,942.96
2018-05-07T00:07:43.454Z,942.94
2018-05-07T00:08:51.508Z,942.94
2018-05-07T00:09:59.697Z,942.89
2018-05-07T00:11:07.638Z,942.89
2018-05-07T00:12:15.707Z,942.88
2018-05-07T00:13:23.782Z,942.87
2018-05-07T00:14:31.894Z,942.85
2018-05-07T00:15:40.010Z,942.83
2018-05-07T00:16:47.963Z,942.82
2018-05-07T00:17:56.002Z,942.86
2018-05-07T00:19:04.066Z,942.89
2018-05-07T00:20:12.132Z,942.85
2018-05-07T00:21:20.283Z,942.81
2018-05-07T00:22:28.285Z,942.88
2018-05-07T00:23:36.319Z,942.85
2018-05-07T00:24:44.377Z,942.89
2018-05-07T00:25:52.437Z,942.85
2018-05-07T00:27:00.594Z,942.85
2018-05-07T00:28:08.565Z,942.82
2018-05-07T00:29:16.628Z,942.80
2018-05-07T00:30:24.783Z,942.84
2018-05-07T00:31:32.746Z,942.79
2018-05-07T00:32:40.913Z,942.80
2018-05-07T00:33:48.892Z,942.76
2018-05-07T00:34:56.946Z,942.75
2018-05-07T00:36:04.996Z,942.77
2018-05-07T00:37:13.056Z,942.71
2018-05-07T00:38:21.219Z,942.71
2018-05-07T00:39:29.336Z,942.70
2018-05-07T00:40:37.249Z,942.72
2018-05-07T00:41:45.314Z,942.62
2018-05-07T00:42:53.371Z,942.69
2018-05-07T00:44:01.513Z,942.58
2018-05-07T00:45:09.481Z,942.55
2018-05-07T00:46:17.650Z,942.59
2018-05-07T00:47:25.649Z,942.56
2018-05-07T00:48:33.682Z,942.54
2018-05-07T00:49:41.817Z,942.53
2018-05-07T00:50:49.816Z,942.54
2018-05-07T00:51:57.844Z,942.51
2018-05-07T00:53:05.936Z,942.49
2018-05-07T00:54:13.995Z,942.53
2018-05-07T00:55:22.121Z,942.54
2018-05-07T00:56:30.112Z,942.51
2018-05-07T00:57:38.186Z,942.54
2018-05-07T00:58:46.226Z,942.54
2018-05-07T00:59:54.322Z,942.59
2018-05-07T01:01:02.463Z,942.50
2018-05-07T01:02:10.516Z,942.51
2018-05-07T01:03:18.471Z,942.60
2018-05-07T01:04:26.535Z,942.56
2018-05-07T01:05:34.603Z,942.52
2018-05-07T01:06:42.769Z,942.53
2018-05-07T01:07:50.718Z,942.51
2018-05-07T01:08:58.784Z,942.47
2018-05-07T01:10:06.851Z,942.47
2018-05-07T01:11:14.904Z,942.45
2018-05-07T01:12:23.075Z,942.50
2018-05-07T01:13:31.015Z,942.45
2018-05-07T01:14:39.076Z,942.46
2018-05-07T01:15:47.153Z,942.45
2018-05-07T01:16:55.200Z,942.48
2018-05-07T01:18:03.386Z,942.46
2018-05-07T01:19:11.328Z,942.46
2018-05-07T01:20:19.406Z,942.46
2018-05-07T01:21:27.473Z,942.44
2018-05-07T01:22:35.556Z,942.54
2018-05-07T01:23:43.679Z,942.47
2018-05-07T01:24:51.631Z,942.43
2018-05-07T01:25:59.702Z,942.48
2018-05-07T01:27:07.767Z,942.40
2018-05-07T01:28:15.832Z,942.43
2018-05-07T01:29:23.991Z,942.41
2018-05-07T01:30:31.935Z,942.39
2018-05-07T01:31:40.004Z,942.43
2018-05-07T01:32:48.080Z,942.37
2018-05-07T01:33:56.232Z,942.45
2018-05-07T01:35:04.299Z,942.41
2018-05-07T01:36:12.254Z,942.37
2018-05-07T01:37:20.332Z,942.40
2018-05-07T01:38:28.388Z,942.33
2018-05-07T01:39:36.447Z,942.36
2018-05-07T01:40:44.591Z,942.36
2018-05-07T01:41:52.574Z,942.29
2018-05-07T01:43:00.661Z,942.33
2018-05-07T01:44:08.685Z,942.35
2018-05-07T01:45:16.746Z,942.32
2018-05-07T01:46:24.902Z,942.35
2018-05-07T01:47:32.857Z,942.33
2018-05-07T01:48:40.927Z,942.30
2018-05-07T01:49:49.090Z,942.30
2018-05-07T01:50:57.064Z,942.35
2018-05-07T01:52:05.215Z,942.32
2018-05-07T01:53:13.189Z,942.25
2018-05-07T01:54:21.239Z,942.30
2018-05-07T01:55:29.307Z,942.35
2018-05-07T01:56:37.364Z,942.36
2018-05-07T01:57:45.660Z,942.39
2018-05-07T01:58:53.479Z,942.41
2018-05-07T02:00:01.556Z,942.34
2018-05-07T02:01:09.613Z,942.36
2018-05-07T02:02:17.681Z,942.35
2018-05-07T02:03:25.956Z,942.39
2018-05-07T02:04:33.786Z,942.39
2018-05-07T02:05:41.942Z,942.37
2018-05-07T02:06:49.930Z,942.37
2018-05-07T02:07:57.961Z,942.39
2018-05-07T02:09:06.145Z,942.34
2018-05-07T02:10:14.108Z,942.33
2018-05-07T02:11:22.159Z,942.37
2018-05-07T02:12:30.227Z,942.35
2018-05-07T02:13:38.282Z,942.37
2018-05-07T02:14:46.442Z,942.31
2018-05-07T02:15:54.409Z,942.32
2018-05-07T02:17:02.470Z,942.36
2018-05-07T02:18:10.528Z,942.36
2018-05-07T02:19:18.584Z,942.29
2018-05-07T02:20:26.762Z,942.34
2018-05-07T02:21:34.817Z,942.32
2018-05-07T02:22:42.781Z,942.25
2018-05-07T02:23:50.844Z,942.26
2018-05-07T02:24:58.902Z,942.24
2018-05-07T02:26:07.056Z,942.22
2018-05-07T02:27:15.011Z,942.27
2018-05-07T02:28:23.085Z,942.23
2018-05-07T02:29:31.148Z,942.20
2018-05-07T02:30:39.214Z,942.18
2018-05-07T02:31:47.485Z,942.11
2018-05-07T02:32:55.327Z,942.15
2018-05-07T02:34:03.373Z,942.12
2018-05-07T02:35:11.434Z,942.11
2018-05-07T02:36:19.505Z,942.11
2018-05-07T02:37:27.797Z,942.10
2018-05-07T02:38:35.620Z,942.01
2018-05-07T02:39:43.683Z,942.00
2018-05-07T02:40:51.731Z,942.05
2018-05-07T02:41:59.821Z,942.03
2018-05-07T02:43:08.112Z,942.06
2018-05-07T02:44:15.952Z,942.02
2018-05-07T02:45:24.027Z,942.01
2018-05-07T02:46:32.067Z,942.06
2018-05-07T02:47:40.118Z,942.02
2018-05-07T02:48:48.265Z,942.00
2018-05-07T02:49:56.238Z,941.96
2018-05-07T02:51:04.309Z,941.98
2018-05-07T02:52:12.364Z,942.01
2018-05-07T02:53:20.521Z,941.94
2018-05-07T02:54:28.709Z,942.01
2018-05-07T02:55:36.544Z,942.01
2018-05-07T02:56:44.619Z,941.97
2018-05-07T02:57:52.679Z,941.97
2018-05-07T02:59:00.746Z,941.89
2018-05-07T03:00:08.903Z,941.97
2018-05-07T03:01:16.856Z,941.90
2018-05-07T03:02:24.922Z,941.96
2018-05-07T03:03:32.988Z,941.90
2018-05-07T03:04:41.034Z,941.92
2018-05-07T03:05:49.204Z,941.94
2018-05-07T03:06:57.180Z,941.91
2018-05-07T03:08:05.224Z,941.86
2018-05-07T03:09:13.385Z,941.93
2018-05-07T03:10:21.337Z,941.93
2018-05-07T03:11:29.633Z,941.95
2018-05-07T03:12:37.469Z,941.92
2018-05-07T03:13:45.544Z,941.94
2018-05-07T03:14:53.588Z,941.89
2018-05-07T03:16:01.642Z,941.88
2018-05-07T03:17:09.804Z,941.89
2018-05-07T03:18:17.777Z,941.93
2018-05-07T03:19:25.816Z,941.93
2018-05-07T03:20:33.883Z,941.94
2018-05-07T03:21:41.929Z,941.96
2018-05-07T03:22:50.122Z,941.90
2018-05-07T03:23:58.083Z,941.88
2018-05-07T03:25:06.384Z,941.92
2018-05-07T03:26:14.199Z,941.90
2018-05-07T03:27:22.251Z,941.91
2018-05-07T03:28:30.546Z,941.91
2018-05-07T03:29:38.369Z,941.89
2018-05-07T03:30:46.417Z,941.87
2018-05-07T03:31:54.520Z,941.86
2018-05-07T03:33:02.558Z,941.91
2018-05-07T03:34:10.736Z,941.92
2018-05-07T03:35:18.717Z,941.94
2018-05-07T03:36:26.755Z,941.90
2018-05-07T03:37:34.819Z,941.94
2018-05-07T03:38:42.877Z,941.95
2018-05-07T03:39:51.020Z,941.97
2018-05-07T03:40:59.090Z,941.94
2018-05-07T03:42:07.066Z,941.95
2018-05-07T03:43:15.114Z,941.93
2018-05-07T03:44:23.181Z,941.95
2018-05-07T03:45:31.316Z,941.91
2018-05-07T03:46:39.297Z,941.90
2018-05-07T03:47:47.362Z,941.94
2018-05-07T03:48:55.419Z,942.00
2018-05-07T03:50:03.468Z,941.98
2018-05-07T03:51:11.754Z,941.94
2018-05-07T03:52:19.601Z,941.95
2018-05-07T03:53:27.662Z,941.93
2018-05-07T03:54:35.723Z,941.96
2018-05-07T03:55:43.803Z,942.01
2018-05-07T03:56:52.048Z,941.96
2018-05-07T03:57:59.904Z,942.01
2018-05-07T03:59:07.973Z,941.96
2018-05-07T04:00:16.021Z,941.97
2018-05-07T04:01:24.121Z,941.96
2018-05-07T04:02:32.375Z,941.89
2018-05-07T04:03:40.207Z,941.89
2018-05-07T04:04:48.272Z,941.90
2018-05-07T04:05:56.330Z,941.90
2018-05-07T04:07:04.393Z,941.89
2018-05-07T04:08:12.536Z,941.91
2018-05-07T04:09:20.535Z,941.90
2018-05-07T04:10:28.577Z,941.90
2018-05-07T04:11:36.631Z,941.91
2018-05-07T04:12:44.793Z,941.93
2018-05-07T04:13:52.849Z,941.88
2018-05-07T04:15:00.879Z,941.88
2018-05-07T04:16:08.872Z,941.91
2018-05-07T04:17:16.934Z,941.88
2018-05-07T04:18:25.000Z,941.91
2018-05-07T04:19:33.166Z,941.91
2018-05-07T04:20:41.128Z,941.94
2018-05-07T04:21:49.177Z,941.92
2018-05-07T04:22:57.239Z,941.90
2018-05-07T04:24:05.311Z,941.92
2018-05-07T04:25:13.470Z,941.94
2018-05-07T04:26:21.404Z,941.94
2018-05-07T04:27:29.482Z,941.96
2018-05-07T04:28:37.646Z,941.96
2018-05-07T04:29:45.590Z,941.93
2018-05-07T04:30:53.752Z,942.00
2018-05-07T04:32:01.712Z,942.00
2018-05-07T04:33:10.079Z,941.95
2018-05-07T04:34:17.842Z,941.97
2018-05-07T04:35:25.931Z,941.98
2018-05-07T04:36:34.071Z,942.03
2018-05-07T04:37:42.011Z,941.99
2018-05-07T04:38:50.384Z,941.99
2018-05-07T04:39:58.145Z,942.02
2018-05-07T04:41:06.210Z,942.04
2018-05-07T04:42:14.369Z,942.04
2018-05-07T04:43:22.329Z,942.04
2018-05-07T04:44:30.499Z,942.07
2018-05-07T04:45:38.482Z,942.06
2018-05-07T04:46:46.657Z,942.11
2018-05-07T04:47:54.795Z,942.11
2018-05-07T04:49:02.648Z,942.10
2018-05-07T04:50:10.799Z,942.11
2018-05-07T04:51:19.210Z,942.14
2018-05-07T04:52:26.811Z,942.17
2018-05-07T04:53:34.987Z,942.13
2018-05-07T04:54:42.948Z,942.17
2018-05-07T04:55:51.007Z,942.14
2018-05-07T04:56:59.078Z,942.13
2018-05-07T04:58:07.117Z,942.14
2018-05-07T04:59:15.280Z,942.10
2018-05-07T05:00:23.373Z,942.15
2018-05-07T05:01:31.325Z,942.14
2018-05-07T05:02:39.371Z,942.12
2018-05-07T05:03:47.539Z,942.17
2018-05-07T05:04:57.683Z,942.12
2018-05-07T05:06:05.050Z,942.14
2018-05-07T05:07:11.615Z,942.24
2018-05-07T05:08:19.675Z,942.18
2018-05-07T05:09:27.743Z,942.21
2018-05-07T05:10:35.888Z,942.15
2018-05-07T05:11:43.862Z,942.17
2018-05-07T05:12:51.890Z,942.17
2018-05-07T05:13:59.982Z,942.18
2018-05-07T05:15:08.044Z,942.16
2018-05-07T05:16:16.201Z,942.19
2018-05-07T05:17:24.167Z,942.20
2018-05-07T05:18:32.211Z,942.23
2018-05-07T05:19:40.281Z,942.20
2018-05-07T05:20:48.349Z,942.14
2018-05-07T05:21:56.509Z,942.21
2018-05-07T05:23:04.470Z,942.20
2018-05-07T05:24:12.544Z,942.16
2018-05-07T05:25:20.601Z,942.18
2018-05-07T05:26:28.651Z,942.14
2018-05-07T05:27:36.812Z,942.14
2018-05-07T05:28:44.767Z,942.10
2018-05-07T05:29:52.840Z,942.14
2018-05-07T05:31:00.898Z,942.13
2018-05-07T05:32:09.056Z,942.16
2018-05-07T05:33:17.116Z,942.23
2018-05-07T05:34:25.080Z,942.15
2018-05-07T05:35:33.131Z,942.14
2018-05-07T05:36:41.198Z,942.17
2018-05-07T05:37:49.280Z,942.15
2018-05-07T05:38:57.414Z,942.17
2018-05-07T05:40:05.382Z,942.15
2018-05-07T05:41:13.442Z,942.26
2018-05-07T05:42:21.479Z,942.20
2018-05-07T05:43:29.584Z,942.23
2018-05-07T05:44:37.723Z,942.16
2018-05-07T05:45:45.712Z,942.21
2018-05-07T05:46:53.745Z,942.21
2018-05-07T05:48:01.893Z,942.18
2018-05-07T05:49:09.876Z,942.26
2018-05-07T05:50:18.102Z,942.18
2018-05-07T05:51:26.007Z,942.20
2018-05-07T05:52:34.069Z,942.16
2018-05-07T05:53:42.108Z,942.22
2018-05-07T05:54:50.202Z,942.20
2018-05-07T05:55:58.346Z,942.23
2018-05-07T05:57:06.314Z,942.15
2018-05-07T05:58:14.380Z,942.18
2018-05-07T05:59:22.429Z,942.17
2018-05-07T06:00:30.474Z,942.20
2018-05-07T06:01:38.668Z,942.21
2018-05-07T06:02:46.615Z,942.19
2018-05-07T06:03:54.720Z,942.27
2018-05-07T06:05:02.736Z,942.26
2018-05-07T06:06:10.926Z,942.25
2018-05-07T06:07:18.964Z,942.24
2018-05-07T06:08:26.929Z,942.25
2018-05-07T06:09:34.988Z,942.26
2018-05-07T06:10:43.042Z,942.29
2018-05-07T06:11:51.125Z,942.26
2018-05-07T06:12:59.277Z,942.30
2018-05-07T06:14:07.264Z,942.28
2018-05-07T06:15:15.306Z,942.25
2018-05-07T06:16:23.371Z,942.37
2018-05-07T06:17:31.409Z,942.28
2018-05-07T06:18:39.572Z,942.28
2018-05-07T06:19:47.563Z,942.27
2018-05-07T06:20:55.588Z,942.27
2018-05-07T06:22:03.664Z,942.33
2018-05-07T06:23:11.709Z,942.31
2018-05-07T06:24:19.906Z,942.30
2018-05-07T06:25:27.851Z,942.28
2018-05-07T06:26:35.917Z,942.23
2018-05-07T06:27:43.997Z,942.29
2018-05-07T06:28:52.032Z,942.31
2018-05-07T06:30:00.208Z,942.31
2018-05-07T06:31:08.174Z,942.31
2018-05-07T06:32:16.252Z,942.36
2018-05-07T06:33:24.284Z,942.41
2018-05-07T06:34:32.352Z,942.42
2018-05-07T06:35:40.513Z,942.39
2018-05-07T06:36:48.485Z,942.33
2018-05-07T06:37:56.549Z,942.41
2018-05-07T06:39:04.602Z,942.35
2018-05-07T06:40:12.677Z,942.41
2018-05-07T06:41:20.878Z,942.35
2018-05-07T06:42:28.799Z,942.33
2018-05-07T06:43:36.871Z,942.45
2018-05-07T06:44:44.929Z,942.35
2018-05-07T06:45:52.988Z,942.31
2018-05-07T06:47:01.145Z,942.32
2018-05-07T06:48:09.107Z,942.32
2018-05-07T06:49:17.168Z,942.31
2018-05-07T06:50:25.246Z,942.30
2018-05-07T06:51:33.286Z,942.33
2018-05-07T06:52:41.444Z,942.37
2018-05-07T06:53:49.405Z,942.37
2018-05-07T06:54:57.480Z,942.35
2018-05-07T06:56:05.568Z,942.33
2018-05-07T06:57:13.599Z,942.41
2018-05-07T06:58:21.756Z,942.32
2018-05-07T06:59:29.726Z,942.32
2018-05-07T07:00:37.776Z,942.32
2018-05-07T07:01:45.855Z,942.38
2018-05-07T07:02:54.023Z,942.31
2018-05-07T07:04:02.060Z,942.35
2018-05-07T07:05:10.046Z,942.30
2018-05-07T07:06:18.102Z,942.30
2018-05-07T07:07:26.236Z,942.31
2018-05-07T07:08:34.410Z,942.28
2018-05-07T07:09:42.392Z,942.39
2018-05-07T07:10:50.356Z,942.59
2018-05-07T07:11:58.432Z,942.30
2018-05-07T07:13:06.503Z,942.24
2018-05-07T07:14:14.547Z,942.25
2018-05-07T07:15:22.723Z,942.33
2018-05-07T07:16:30.691Z,942.86
2018-05-07T07:17:38.739Z,942.83
2018-05-07T07:18:46.783Z,943.42
2018-05-07T07:19:54.853Z,943.42
2018-05-07T07:21:03.045Z,943.24
2018-05-07T07:22:11.002Z,943.64
2018-05-07T07:23:19.068Z,943.91
2018-05-07T07:24:27.246Z,943.18
2018-05-07T07:25:35.199Z,943.20
2018-05-07T07:26:43.367Z,943.50
2018-05-07T07:27:51.313Z,943.36
2018-05-07T07:28:59.400Z,943.31
2018-05-07T07:30:07.462Z,944.07
2018-05-07T07:31:15.518Z,944.95
2018-05-07T07:32:23.703Z,945.11
2018-05-07T07:33:31.661Z,944.12
2018-05-07T07:34:39.734Z,944.59
2018-05-07T07:35:47.798Z,945.21
2018-05-07T07:36:55.871Z,944.47
2018-05-07T07:38:04.041Z,942.80
2018-05-07T07:39:12.031Z,942.74
2018-05-07T07:40:20.080Z,943.93
2018-05-07T07:41:28.165Z,944.29
2018-05-07T07:42:36.212Z,943.73
2018-05-07T07:43:44.388Z,942.73
2018-05-07T07:44:52.369Z,942.28
2018-05-07T07:46:00.421Z,942.27
2018-05-07T07:47:08.611Z,942.32
2018-05-07T07:48:16.582Z,942.60
2018-05-07T07:49:24.728Z,943.85
2018-05-07T07:50:32.683Z,944.80
2018-05-07T07:51:40.757Z,944.97
2018-05-07T07:52:49.111Z,946.44
2018-05-07T07:53:56.913Z,947.80
2018-05-07T07:55:05.092Z,948.75
2018-05-07T07:56:13.056Z,949.50
2018-05-07T07:57:21.120Z,949.81
2018-05-07T07:58:29.203Z,949.76
2018-05-07T07:59:37.254Z,949.83
2018-05-07T08:00:45.447Z,950.41
2018-05-07T08:01:53.403Z,951.50
2018-05-07T08:03:01.492Z,952.34
2018-05-07T08:04:09.576Z,952.21
2018-05-07T08:05:17.637Z,951.82
2018-05-07T08:06:25.818Z,951.39
2018-05-07T08:07:33.774Z,951.25
2018-05-07T08:08:41.845Z,951.92
2018-05-07T08:09:49.965Z,952.82
2018-05-07T08:10:58.009Z,952.49
2018-05-07T08:12:06.250Z,951.43
2018-05-07T08:13:14.158Z,950.65
2018-05-07T08:14:22.239Z,952.01
2018-05-07T08:15:30.308Z,954.05
2018-05-07T08:16:38.478Z,953.55
2018-05-07T08:17:46.573Z,951.06
2018-05-07T08:18:54.538Z,950.58
2018-05-07T08:20:02.634Z,952.38
2018-05-07T08:21:10.705Z,952.93
2018-05-07T08:22:18.773Z,951.56
2018-05-07T08:23:26.948Z,950.46
2018-05-07T08:24:34.943Z,949.62
2018-05-07T08:25:43.012Z,949.20
2018-05-07T08:26:51.104Z,949.16
2018-05-07T08:27:59.184Z,948.94
2018-05-07T08:29:07.356Z,949.48
2018-05-07T08:30:15.337Z,950.92
2018-05-07T08:31:23.424Z,952.41
2018-05-07T08:32:31.490Z,952.76
2018-05-07T08:33:39.580Z,953.11
2018-05-07T08:34:47.759Z,952.50
2018-05-07T08:35:55.755Z,952.87
2018-05-07T08:37:03.824Z,954.54
2018-05-07T08:38:11.886Z,954.91
2018-05-07T08:39:19.984Z,954.68
2018-05-07T08:40:28.160Z,954.30
2018-05-07T08:41:36.126Z,954.10
2018-05-07T08:42:44.217Z,954.46
2018-05-07T08:43:52.286Z,954.60
2018-05-07T08:45:00.364Z,953.46
2018-05-07T08:46:08.560Z,952.70
2018-05-07T08:47:16.547Z,952.28
2018-05-07T08:48:24.632Z,952.05
2018-05-07T08:49:32.703Z,951.74
2018-05-07T08:50:40.924Z,950.62
2018-05-07T08:51:48.963Z,949.74
2018-05-07T08:52:57.015Z,950.31
2018-05-07T08:54:05.033Z,950.49
2018-05-07T08:55:13.097Z,949.89
2018-05-07T08:56:21.164Z,949.04
2018-05-07T08:57:29.354Z,948.23
2018-05-07T08:58:37.344Z,947.69
2018-05-07T08:59:45.433Z,948.17
2018-05-07T09:00:53.537Z,948.37
2018-05-07T09:02:01.603Z,947.83
2018-05-07T09:03:09.765Z,947.20
2018-05-07T09:04:17.758Z,945.77
2018-05-07T09:05:25.846Z,943.20
2018-05-07T09:06:33.902Z,942.52
2018-05-07T09:07:41.957Z,942.54
2018-05-07T09:08:50.168Z,942.44
2018-05-07T09:09:58.135Z,942.44
2018-05-07T09:11:06.225Z,942.48
2018-05-07T09:12:14.294Z,942.40
2018-05-07T09:13:22.368Z,942.46
2018-05-07T09:14:30.535Z,942.45
2018-05-07T09:15:38.508Z,942.42
2018-05-07T09:16:46.591Z,942.34
2018-05-07T09:17:54.679Z,942.28
2018-05-07T09:19:02.751Z,942.33
2018-05-07T09:20:10.926Z,942.37
2018-05-07T09:21:18.878Z,942.40
2018-05-07T09:22:26.968Z,942.35
2018-05-07T09:23:35.060Z,942.36
2018-05-07T09:24:43.151Z,942.33
2018-05-07T09:25:51.277Z,942.28
2018-05-07T09:26:59.265Z,942.37
2018-05-07T09:28:07.323Z,942.25
2018-05-07T09:29:15.391Z,942.29
2018-05-07T09:30:23.470Z,942.31
2018-05-07T09:31:31.634Z,942.26
2018-05-07T09:32:39.629Z,942.23
2018-05-07T09:33:47.681Z,942.29
2018-05-07T09:34:55.792Z,942.25
2018-05-07T09:36:03.828Z,942.28
2018-05-07T09:37:11.963Z,942.25
2018-05-07T09:38:19.940Z,942.25
2018-05-07T09:39:28.036Z,942.25
2018-05-07T09:40:36.113Z,942.30
2018-05-07T09:41:44.164Z,942.25
2018-05-07T09:42:52.374Z,942.22
2018-05-07T09:44:00.309Z,942.19
2018-05-07T09:45:08.396Z,942.15
2018-05-07T09:46:16.481Z,942.12
2018-05-07T09:47:24.494Z,942.14
2018-05-07T09:48:32.695Z,942.11
2018-05-07T09:49:40.639Z,942.15
2018-05-07T09:50:48.771Z,942.11
2018-05-07T09:51:56.804Z,942.08
2018-05-07T09:53:04.875Z,942.13
2018-05-07T09:54:13.060Z,942.07
2018-05-07T09:55:21.016Z,942.12
2018-05-07T09:56:29.095Z,942.08
2018-05-07T09:57:37.161Z,942.02
2018-05-07T09:58:45.209Z,942.12
2018-05-07T09:59:53.386Z,942.07
2018-05-07T10:01:01.352Z,942.09
2018-05-07T10:02:09.428Z,942.06
2018-05-07T10:03:17.464Z,942.06
2018-05-07T10:04:25.557Z,942.01
2018-05-07T10:05:33.715Z,941.94
2018-05-07T10:06:41.688Z,941.89
2018-05-07T10:07:49.779Z,941.97
2018-05-07T10:08:57.833Z,941.94
2018-05-07T10:10:05.914Z,941.97
2018-05-07T10:11:14.107Z,941.95
2018-05-07T10:12:22.013Z,941.96
2018-05-07T10:13:30.105Z,941.95
2018-05-07T10:14:38.324Z,941.96
2018-05-07T10:15:46.251Z,942.03
2018-05-07T10:16:54.410Z,941.97
2018-05-07T10:18:02.388Z,942.01
2018-05-07T10:19:10.448Z,941.98
2018-05-07T10:20:18.526Z,941.94
2018-05-07T10:21:26.600Z,941.93
2018-05-07T10:22:34.753Z,941.95
2018-05-07T10:23:42.742Z,941.88
2018-05-07T10:24:50.804Z,941.90
2018-05-07T10:25:58.865Z,941.83
2018-05-07T10:27:06.968Z,941.88
2018-05-07T10:28:15.111Z,941.96
2018-05-07T10:29:23.057Z,941.84
2018-05-07T10:30:31.138Z,941.86
2018-05-07T10:31:39.203Z,941.86
2018-05-07T10:32:47.275Z,941.90
2018-05-07T10:33:55.569Z,941.89
2018-05-07T10:35:03.421Z,941.89
2018-05-07T10:36:11.486Z,941.87
2018-05-07T10:37:19.529Z,941.85
2018-05-07T10:38:27.615Z,942.00
2018-05-07T10:39:35.790Z,941.85
2018-05-07T10:40:43.754Z,941.89
2018-05-07T10:41:51.808Z,941.89
2018-05-07T10:42:59.890Z,941.88
2018-05-07T10:44:07.956Z,941.95
2018-05-07T10:45:16.128Z,941.84
2018-05-07T10:46:24.101Z,941.85
2018-05-07T10:47:32.137Z,941.84
2018-05-07T10:48:40.267Z,941.92
2018-05-07T10:49:48.311Z,941.85
2018-05-07T10:50:56.464Z,941.82
2018-05-07T10:52:04.458Z,941.74
2018-05-07T10:53:12.518Z,941.70
2018-05-07T10:54:20.581Z,941.83
2018-05-07T10:55:28.657Z,941.84
2018-05-07T10:56:36.823Z,941.78
2018-05-07T10:57:44.779Z,941.83
2018-05-07T10:58:52.855Z,941.80
2018-05-07T11:00:00.939Z,941.82
2018-05-07T11:01:08.982Z,941.83
2018-05-07T11:02:17.296Z,941.80
2018-05-07T11:03:25.118Z,941.80
2018-05-07T11:04:33.190Z,941.79
2018-05-07T11:05:41.260Z,941.76
2018-05-07T11:06:49.355Z,941.75
2018-05-07T11:07:57.512Z,941.73
2018-05-07T11:09:05.486Z,941.70
2018-05-07T11:10:13.556Z,941.71
2018-05-07T11:11:21.618Z,941.80
2018-05-07T11:12:29.690Z,941.65
2018-05-07T11:13:37.943Z,941.66
2018-05-07T11:14:45.837Z,941.57
2018-05-07T11:15:53.902Z,941.59
2018-05-07T11:17:01.937Z,941.54
2018-05-07T11:18:10.028Z,941.63
2018-05-07T11:19:18.202Z,941.56
2018-05-07T11:20:26.162Z,941.56
2018-05-07T11:21:34.239Z,941.56
2018-05-07T11:22:42.323Z,941.62
2018-05-07T11:23:50.385Z,941.58
2018-05-07T11:24:58.550Z,941.57
2018-05-07T11:26:06.507Z,941.47
2018-05-07T11:27:14.588Z,941.42
2018-05-07T11:28:22.644Z,941.39
2018-05-07T11:29:30.736Z,941.48
2018-05-07T11:30:38.888Z,941.45
2018-05-07T11:31:46.866Z,941.44
2018-05-07T11:32:54.922Z,941.46
2018-05-07T11:34:03.027Z,941.39
2018-05-07T11:35:11.053Z,941.37
2018-05-07T11:36:19.378Z,941.32
2018-05-07T11:37:27.214Z,941.38
2018-05-07T11:38:35.282Z,941.30
2018-05-07T11:39:43.349Z,941.28
2018-05-07T11:40:51.432Z,941.24
2018-05-07T11:41:59.584Z,941.28
2018-05-07T11:43:07.555Z,941.26
2018-05-07T11:44:15.631Z,941.35
2018-05-07T11:45:23.696Z,941.28
2018-05-07T11:46:31.746Z,941.27
2018-05-07T11:47:40.034Z,941.29
2018-05-07T11:48:47.898Z,941.27
2018-05-07T11:49:55.975Z,941.21
2018-05-07T11:51:04.045Z,941.20
2018-05-07T11:52:12.086Z,941.18
2018-05-07T11:53:20.375Z,941.30
2018-05-07T11:54:28.239Z,941.26
2018-05-07T11:55:36.320Z,941.22
2018-05-07T11:56:44.405Z,941.21
2018-05-07T11:57:52.469Z,941.17
2018-05-07T11:59:00.648Z,941.20
2018-05-07T12:00:08.596Z,941.20
2018-05-07T12:01:16.655Z,941.22
2018-05-07T12:02:24.748Z,941.13
2018-05-07T12:03:32.795Z,941.09
2018-05-07T12:04:40.952Z,941.05
2018-05-07T12:05:48.952Z,941.01
2018-05-07T12:06:57.007Z,941.02
2018-05-07T12:08:05.094Z,941.07
2018-05-07T12:09:13.146Z,941.07
2018-05-07T12:10:21.321Z,941.05
2018-05-07T12:11:29.272Z,941.07
2018-05-07T12:12:37.364Z,941.06
2018-05-07T12:13:45.416Z,941.04
2018-05-07T12:14:53.489Z,941.05
2018-05-07T12:16:01.666Z,940.99
2018-05-07T12:17:09.625Z,940.98
2018-05-07T12:18:17.714Z,941.01
2018-05-07T12:19:25.780Z,941.00
2018-05-07T12:20:33.849Z,940.99
2018-05-07T12:21:41.989Z,941.02
2018-05-07T12:22:49.964Z,941.00
2018-05-07T12:23:58.054Z,940.99
2018-05-07T12:25:06.149Z,940.94
2018-05-07T12:26:14.197Z,940.98
2018-05-07T12:27:22.377Z,941.04
2018-05-07T12:28:30.323Z,941.04
2018-05-07T12:29:38.399Z,941.02
2018-05-07T12:30:46.476Z,940.99
2018-05-07T12:31:54.564Z,940.92
2018-05-07T12:33:02.711Z,940.90
2018-05-07T12:34:10.674Z,940.89
2018-05-07T12:35:18.757Z,940.91
2018-05-07T12:36:26.805Z,940.86
2018-05-07T12:37:34.927Z,940.87
2018-05-07T12:38:43.068Z,940.96
2018-05-07T12:39:51.042Z,940.96
2018-05-07T12:40:59.105Z,940.86
2018-05-07T12:42:07.182Z,940.88
2018-05-07T12:43:15.241Z,940.85
2018-05-07T12:44:23.780Z,940.83
2018-05-07T12:45:31.367Z,940.83
2018-05-07T12:46:39.476Z,940.83
2018-05-07T12:47:47.504Z,940.84
2018-05-07T12:48:55.570Z,940.80
2018-05-07T12:50:04.163Z,940.77
2018-05-07T12:51:11.705Z,940.79
2018-05-07T12:52:19.816Z,940.82
2018-05-07T12:53:27.872Z,940.75
2018-05-07T12:54:35.945Z,940.67
2018-05-07T12:55:44.097Z,940.67
2018-05-07T12:56:52.044Z,940.72
2018-05-07T12:58:00.137Z,940.68
2018-05-07T12:59:08.207Z,940.66
2018-05-07T13:00:16.291Z,940.67
2018-05-07T13:01:24.443Z,940.48
2018-05-07T13:02:32.410Z,940.65
2018-05-07T13:03:40.496Z,940.68
2018-05-07T13:04:48.559Z,940.61
2018-05-07T13:05:56.711Z,940.54
2018-05-07T13:07:04.806Z,940.58
2018-05-07T13:08:12.775Z,940.52
2018-05-07T13:09:20.843Z,940.49
2018-05-07T13:10:28.895Z,940.52
2018-05-07T13:11:37.062Z,940.50
2018-05-07T13:12:45.168Z,940.52
2018-05-07T13:13:53.128Z,940.46
2018-05-07T13:15:01.196Z,940.45
2018-05-07T13:16:09.256Z,940.48
2018-05-07T13:17:17.399Z,940.42
2018-05-07T13:18:25.506Z,940.46
2018-05-07T13:19:33.474Z,940.48
2018-05-07T13:20:41.530Z,940.35
2018-05-07T13:21:49.613Z,940.40
2018-05-07T13:22:57.676Z,940.35
2018-05-07T13:24:05.852Z,940.35
2018-05-07T13:25:13.815Z,940.38
2018-05-07T13:26:21.847Z,940.35
2018-05-07T13:27:29.941Z,940.31
2018-05-07T13:28:38.057Z,940.29
2018-05-07T13:29:46.194Z,940.22
2018-05-07T13:30:54.142Z,940.23
2018-05-07T13:32:02.226Z,940.27
2018-05-07T13:33:10.301Z,940.24
2018-05-07T13:34:18.373Z,940.24
2018-05-07T13:35:26.527Z,940.27
2018-05-07T13:36:34.513Z,940.28
2018-05-07T13:37:42.583Z,940.32
2018-05-07T13:38:50.651Z,940.25
2018-05-07T13:39:58.738Z,940.14
2018-05-07T13:41:06.898Z,940.15
2018-05-07T13:42:14.862Z,940.18
2018-05-07T13:43:22.937Z,940.12
2018-05-07T13:44:31.003Z,940.12
2018-05-07T13:45:39.080Z,940.13
2018-05-07T13:46:47.247Z,940.13
2018-05-07T13:47:55.191Z,940.16
2018-05-07T13:49:03.286Z,940.10
2018-05-07T13:50:11.339Z,940.03
2018-05-07T13:51:19.403Z,940.07
2018-05-07T13:52:27.588Z,940.03
2018-05-07T13:53:35.533Z,940.10
2018-05-07T13:54:43.619Z,940.07
2018-05-07T13:55:51.684Z,940.03
2018-05-07T13:56:59.841Z,940.06
2018-05-07T13:58:07.933Z,939.99
2018-05-07T13:59:15.933Z,940.01
2018-05-07T14:00:23.967Z,939.99
2018-05-07T14:01:32.026Z,939.97
2018-05-07T14:02:40.118Z,939.93
2018-05-07T14:03:48.313Z,939.92
2018-05-07T14:04:56.261Z,939.86
2018-05-07T14:06:04.328Z,939.86
2018-05-07T14:07:12.392Z,939.91
2018-05-07T14:08:20.456Z,939.90
2018-05-07T14:09:28.612Z,939.92